Time;durP1;ratioP1;P1;durP2;ratioP2;P2;SDS_P1;SDS_P2;PMS_P1;PMS_P2;Temp;Humidity;BMP_temperature;BMP_pressure;BME280_temperature;BME280_humidity;BME280_pressure;Samples;Min_cycle;Max_cycle;Signal;HPM_P1;HPM_P2
2020/05/08 00:04:44;;;;;;;3.8;2.1;;;;;;;10.08;72.65234;941.9096;;;;
2020/05/08 00:05:55;;;;;;;5.1;2.2;;;;;;;10.04;72.8877;941.8605;;;;
2020/05/08 00:08:19;;;;;;;4.3;2.4;;;;;;;10.13;72.71875;941.9288;;;;
2020/05/08 00:10:48;;;;;;;4.8;2.4;;;;;;;10.3;71.92773;941.9084;;;;
2020/05/08 00:14:19;;;;;;;6.1;2.1;;;;;;;10.33;71.70215;941.8873;;;;
2020/05/08 00:15:48;;;;;;;4.7;2.1;;;;;;;10.31;71.65332;941.8504;;;;
2020/05/08 00:18:25;;;;;;;4.4;2.2;;;;;;;10.21;72.08203;941.8098;;;;
2020/05/08 00:20:34;;;;;;;3.9;2;;;;;;;10.32;71.39258;941.8752;;;;
2020/05/08 00:22:57;;;;;;;4.6;2.3;;;;;;;10.14;71.93262;941.8406;;;;
2020/05/08 00:27:51;;;;;;;3.4;2;;;;;;;10.12;72.10254;941.8061;;;;
2020/05/08 00:30:09;;;;;;;4.8;2;;;;;;;10.21;72.02441;941.8301;;;;
2020/05/08 00:32:34;;;;;;;4;1.9;;;;;;;10.19;72.10352;941.8225;;;;
2020/05/08 00:35:00;;;;;;;3.3;1.9;;;;;;;9.94;73.21094;941.8155;;;;
2020/05/08 00:37:33;;;;;;;4.1;2.3;;;;;;;10.02;72.99707;941.7972;;;;
2020/05/08 00:39:59;;;;;;;3;2.2;;;;;;;10.09;72.71289;941.7952;;;;
2020/05/08 00:42:24;;;;;;;7.9;2.2;;;;;;;10.19;72.375;941.6505;;;;
2020/05/08 00:44:51;;;;;;;3.8;2.1;;;;;;;10.23;72.08496;941.7258;;;;
2020/05/08 00:47:16;;;;;;;4.4;2;;;;;;;10.05;72.85352;941.7524;;;;
2020/05/08 00:49:42;;;;;;;3.4;1.7;;;;;;;10.09;72.82617;941.7467;;;;
2020/05/08 00:52:07;;;;;;;2.6;1.8;;;;;;;10.13;72.82227;941.7658;;;;
2020/05/08 00:54:32;;;;;;;5.3;2;;;;;;;10.2;72.47949;941.7358;;;;
2020/05/08 00:56:57;;;;;;;5;2.2;;;;;;;10.19;72.52344;941.6973;;;;
2020/05/08 00:59:22;;;;;;;3.7;2;;;;;;;10.2;72.58203;941.6539;;;;
2020/05/08 01:01:47;;;;;;;5.3;2.3;;;;;;;10.2;72.38867;941.6094;;;;
2020/05/08 01:04:12;;;;;;;3.3;2.1;;;;;;;10.04;72.78418;941.5582;;;;
2020/05/08 01:06:38;;;;;;;4.2;2.2;;;;;;;10.03;73.22656;941.5253;;;;
2020/05/08 01:09:03;;;;;;;4.7;2.3;;;;;;;10.05;73.48145;941.5106;;;;
2020/05/08 01:11:28;;;;;;;3.3;2;;;;;;;10.14;73.46191;941.5287;;;;
2020/05/08 01:13:53;;;;;;;4.4;2.1;;;;;;;10.17;72.7832;941.5245;;;;
2020/05/08 01:16:18;;;;;;;4.3;2;;;;;;;10.22;72.27734;941.5027;;;;
2020/05/08 01:18:43;;;;;;;4.1;2.2;;;;;;;10.14;72.43652;941.4802;;;;
2020/05/08 01:21:09;;;;;;;3.7;2.1;;;;;;;10.16;72.25684;941.506;;;;
2020/05/08 01:25:38;;;;;;;3.8;2.5;;;;;;;9.65;74.19922;941.4252;;;;
2020/05/08 01:28:07;;;;;;;5.1;2.1;;;;;;;9.54;74.64746;941.5367;;;;
2020/05/08 01:30:32;;;;;;;3.6;1.9;;;;;;;9.47;75.09082;941.44;;;;
2020/05/08 01:32:57;;;;;;;6.1;2.4;;;;;;;9.44;75.31348;941.3806;;;;
2020/05/08 01:35:22;;;;;;;2.8;2;;;;;;;9.28;76.16309;941.282;;;;
2020/05/08 01:37:47;;;;;;;5.7;2.3;;;;;;;9.31;76.31641;941.3246;;;;
2020/05/08 01:40:13;;;;;;;5.4;2.1;;;;;;;9.45;75.58984;941.3308;;;;
2020/05/08 01:42:39;;;;;;;6.4;2.3;;;;;;;9.36;75.77734;941.3239;;;;
2020/05/08 01:45:04;;;;;;;4.3;2.3;;;;;;;9.35;75.91309;941.3365;;;;
2020/05/08 01:47:29;;;;;;;5.8;2;;;;;;;9.44;75.50684;941.3169;;;;
2020/05/08 01:49:54;;;;;;;4.7;2.4;;;;;;;9.24;76.4043;941.2899;;;;
2020/05/08 01:52:19;;;;;;;4.4;2.1;;;;;;;9.19;76.60059;941.2734;;;;
2020/05/08 01:54:44;;;;;;;3.6;2.1;;;;;;;9.01;77.67285;941.2922;;;;
2020/05/08 01:57:10;;;;;;;5.1;2.2;;;;;;;9;77.97852;941.2114;;;;
2020/05/08 01:59:34;;;;;;;3.8;2.3;;;;;;;9;77.93457;941.2528;;;;
2020/05/08 02:02:00;;;;;;;4.1;2.1;;;;;;;8.98;78.12305;941.2667;;;;
2020/05/08 02:04:25;;;;;;;3;2.2;;;;;;;8.86;78.62305;941.215;;;;
2020/05/08 02:06:50;;;;;;;3.2;2.4;;;;;;;8.86;78.77051;941.2444;;;;
2020/05/08 02:09:15;;;;;;;3.7;2.2;;;;;;;8.86;78.63574;941.2119;;;;
2020/05/08 02:11:48;;;;;;;4.3;2.3;;;;;;;8.71;79.39063;941.1394;;;;
2020/05/08 02:14:14;;;;;;;3.4;1.9;;;;;;;8.76;79.42383;941.0666;;;;
2020/05/08 02:16:39;;;;;;;5.5;2.1;;;;;;;8.85;79.03223;941.0711;;;;
2020/05/08 02:19:04;;;;;;;4.4;2.1;;;;;;;8.86;79.1123;941.0284;;;;
2020/05/08 02:21:29;;;;;;;4.5;2;;;;;;;9.03;78.42871;941.0678;;;;
2020/05/08 02:23:54;;;;;;;6.1;2;;;;;;;9.17;77.78125;940.9911;;;;
2020/05/08 02:26:19;;;;;;;5.5;2.1;;;;;;;9.19;77.61426;940.8429;;;;
2020/05/08 02:28:44;;;;;;;3.4;2.1;;;;;;;9.08;77.96973;940.91;;;;
2020/05/08 02:31:10;;;;;;;3.5;2.1;;;;;;;9.11;77.77051;940.8834;;;;
2020/05/08 02:33:35;;;;;;;5.5;2.2;;;;;;;8.93;78.41016;940.8759;;;;
2020/05/08 02:36:00;;;;;;;3.3;2.4;;;;;;;8.89;78.58398;940.9147;;;;
2020/05/08 02:38:25;;;;;;;6;2.4;;;;;;;8.83;78.97266;940.8906;;;;
2020/05/08 02:40:50;;;;;;;2.6;2.1;;;;;;;8.94;78.43457;940.9221;;;;
2020/05/08 02:43:16;;;;;;;4.9;2.4;;;;;;;8.77;79.29004;940.8525;;;;
2020/05/08 02:45:41;;;;;;;4.8;2.4;;;;;;;8.88;79.04883;940.8398;;;;
2020/05/08 02:48:06;;;;;;;12;4.2;;;;;;;9.01;78.37793;940.8823;;;;
2020/05/08 02:50:31;;;;;;;5.7;2.5;;;;;;;9.1;77.91797;940.8762;;;;
2020/05/08 02:52:56;;;;;;;4.6;2.2;;;;;;;9.19;77.35059;940.7452;;;;
2020/05/08 02:55:24;;;;;;;3;2.1;;;;;;;9.23;77.32617;940.7439;;;;
2020/05/08 02:57:49;;;;;;;4.6;2;;;;;;;9.18;77.56738;940.8292;;;;
2020/05/08 03:00:24;;;;;;;4;2.1;;;;;;;9.23;77.24609;940.7748;;;;
2020/05/08 03:02:54;;;;;;;4.3;1.9;;;;;;;9.43;76.42773;940.7477;;;;
2020/05/08 03:07:35;;;;;;;3.6;2.1;;;;;;;9.65;75.25879;940.7557;;;;
2020/05/08 03:10:00;;;;;;;3.2;2.1;;;;;;;9.65;75.09863;940.774;;;;
2020/05/08 03:12:26;;;;;;;4.8;2.2;;;;;;;9.59;75.1123;940.7823;;;;
2020/05/08 03:14:51;;;;;;;3.2;2.1;;;;;;;9.55;75.48047;940.7029;;;;
2020/05/08 03:17:18;;;;;;;4.2;1.9;;;;;;;9.66;75.26172;940.7361;;;;
2020/05/08 03:19:43;;;;;;;5.4;2.2;;;;;;;9.59;75.36328;940.7576;;;;
2020/05/08 03:22:10;;;;;;;5;1.9;;;;;;;9.67;75.09082;940.7299;;;;
2020/05/08 03:24:35;;;;;;;5;2.1;;;;;;;9.73;74.91992;940.7499;;;;
2020/05/08 03:27:03;;;;;;;8.1;2.5;;;;;;;9.75;74.90137;940.7511;;;;
2020/05/08 03:29:28;;;;;;;7.3;2.3;;;;;;;9.73;75.11328;940.68;;;;
2020/05/08 03:31:54;;;;;;;6.6;2.9;;;;;;;9.7;75.13086;940.6484;;;;
2020/05/08 03:34:19;;;;;;;8;2.5;;;;;;;9.74;75.71875;940.6609;;;;
2020/05/08 03:36:46;;;;;;;7.2;2.6;;;;;;;9.71;75.69141;940.6797;;;;
2020/05/08 03:39:14;;;;;;;10.1;3;;;;;;;9.81;75.01172;940.6437;;;;
2020/05/08 03:41:39;;;;;;;15.3;3.2;;;;;;;9.79;75.04492;940.6833;;;;
2020/05/08 03:44:04;;;;;;;12;3;;;;;;;9.81;74.97949;940.6291;;;;
2020/05/08 03:46:29;;;;;;;10.2;2.7;;;;;;;9.69;75.37891;940.6713;;;;
2020/05/08 03:48:54;;;;;;;5.1;2.7;;;;;;;9.36;76.57422;940.615;;;;
2020/05/08 03:51:19;;;;;;;9.9;2.8;;;;;;;9.37;76.81738;940.7026;;;;
2020/05/08 03:53:48;;;;;;;14.9;3.8;;;;;;;9.25;77.14551;940.7608;;;;
2020/05/08 03:56:13;;;;;;;6.8;2.6;;;;;;;9.13;77.59277;940.8442;;;;
2020/05/08 03:58:38;;;;;;;7.7;3.1;;;;;;;9.04;78.09863;940.8225;;;;
2020/05/08 04:02:30;;;;;;;4.8;2.9;;;;;;;9.27;77.33301;940.8351;;;;
2020/05/08 04:04:54;;;;;;;10.6;3.4;;;;;;;9.33;77.08203;940.7656;;;;
2020/05/08 04:07:19;;;;;;;7;3;;;;;;;9.46;76.54688;940.8588;;;;
2020/05/08 04:09:44;;;;;;;7.3;2.9;;;;;;;9.48;76.4248;940.8948;;;;
2020/05/08 04:12:09;;;;;;;5;2.9;;;;;;;9.5;76.56641;940.869;;;;
2020/05/08 04:14:35;;;;;;;7.4;2.8;;;;;;;9.46;76.67188;940.8675;;;;
2020/05/08 04:17:00;;;;;;;6.6;2.4;;;;;;;9.48;76.62012;940.8616;;;;
2020/05/08 04:19:25;;;;;;;8.1;3.2;;;;;;;9.68;75.84473;940.8039;;;;
2020/05/08 04:21:50;;;;;;;11.6;2.9;;;;;;;9.75;75.42578;940.9403;;;;
2020/05/08 04:24:15;;;;;;;9.9;3.6;;;;;;;9.81;75.99414;941.0045;;;;
2020/05/08 04:26:40;;;;;;;12.2;3.9;;;;;;;9.73;75.77441;940.9487;;;;
2020/05/08 04:29:06;;;;;;;11.3;3.6;;;;;;;9.91;75.04199;941.0482;;;;
2020/05/08 04:31:31;;;;;;;8.9;2.8;;;;;;;10;74.52148;941.0536;;;;
2020/05/08 04:33:56;;;;;;;19.1;4.1;;;;;;;10.2;73.95117;941.065;;;;
2020/05/08 04:36:21;;;;;;;14.8;4.1;;;;;;;10.23;73.63672;941.0747;;;;
2020/05/08 04:38:46;;;;;;;12.1;3.7;;;;;;;10.34;73.45117;941.0676;;;;
2020/05/08 04:41:11;;;;;;;14.6;4.2;;;;;;;10.34;73.43945;941.0247;;;;
2020/05/08 04:43:38;;;;;;;16.2;4;;;;;;;10.49;73.01855;941.0119;;;;
2020/05/08 04:46:03;;;;;;;10.7;3.7;;;;;;;10.39;73.41309;941.0366;;;;
2020/05/08 04:48:30;;;;;;;16.5;4;;;;;;;10.51;73.09082;941.0815;;;;
2020/05/08 04:50:55;;;;;;;14.7;3.8;;;;;;;10.6;72.76465;941.0358;;;;
2020/05/08 04:53:22;;;;;;;13.5;3.5;;;;;;;10.72;72.24805;941.1102;;;;
2020/05/08 04:55:47;;;;;;;11.7;3.9;;;;;;;10.48;73.01758;941.1066;;;;
2020/05/08 04:58:13;;;;;;;12.3;4.2;;;;;;;10.48;73.25684;941.1017;;;;
2020/05/08 05:00:38;;;;;;;12.7;4.9;;;;;;;10.58;72.83984;941.0992;;;;
2020/05/08 05:03:04;;;;;;;35.5;6.6;;;;;;;10.76;72.4707;941.1337;;;;
2020/05/08 05:05:30;;;;;;;15.9;4.4;;;;;;;10.93;72.18066;941.1586;;;;
2020/05/08 05:07:55;;;;;;;19.4;4.5;;;;;;;11.1;71.69238;941.2039;;;;
2020/05/08 05:10:20;;;;;;;14.6;4.8;;;;;;;11.25;71.30566;941.2043;;;;
2020/05/08 05:12:45;;;;;;;16.6;5.7;;;;;;;11.16;71.45215;941.1066;;;;
2020/05/08 05:15:10;;;;;;;12.5;4.4;;;;;;;11.32;71.04297;941.1972;;;;
2020/05/08 05:17:35;;;;;;;15.4;4.2;;;;;;;11.58;70.51367;941.2122;;;;
2020/05/08 05:20:00;;;;;;;12.5;4.1;;;;;;;12.03;70.65625;941.224;;;;
2020/05/08 05:22:25;;;;;;;12.2;3.6;;;;;;;13.13;66.96484;941.1661;;;;
2020/05/08 05:24:50;;;;;;;15.6;3.1;;;;;;;14.09;61.58496;941.2198;;;;
2020/05/08 05:27:15;;;;;;;21.4;3.5;;;;;;;14.63;59.06934;941.135;;;;
2020/05/08 05:29:40;;;;;;;15.1;3.3;;;;;;;14.77;59.3877;941.1404;;;;
2020/05/08 05:32:06;;;;;;;19.2;3.4;;;;;;;14.88;59.09082;941.1741;;;;
2020/05/08 05:34:31;;;;;;;20.4;3.4;;;;;;;14.23;60.14355;941.1906;;;;
2020/05/08 05:36:56;;;;;;;20.2;3.6;;;;;;;14.77;58.63867;941.2158;;;;
2020/05/08 05:39:29;;;;;;;14.8;3.1;;;;;;;15.19;57.64551;941.228;;;;
2020/05/08 05:41:51;;;;;;;22.1;4.2;;;;;;;15.55;57.17285;941.3161;;;;
2020/05/08 05:44:30;;;;;;;23.3;3.8;;;;;;;15.46;57.84277;941.2861;;;;
2020/05/08 05:46:47;;;;;;;14.5;3.5;;;;;;;15.42;57.21387;941.3328;;;;
2020/05/08 05:49:05;;;;;;;9.2;2.8;;;;;;;15.49;56.26367;941.2932;;;;
2020/05/08 05:51:27;;;;;;;16.4;2.8;;;;;;;15.3;57.01172;941.3329;;;;
2020/05/08 05:53:52;;;;;;;14.7;3.3;;;;;;;15.24;57.72168;941.3444;;;;
2020/05/08 05:56:17;;;;;;;10.4;2.8;;;;;;;15.4;56.87598;941.3053;;;;
2020/05/08 05:58:43;;;;;;;15.5;2.4;;;;;;;15.56;56.12207;941.3008;;;;
2020/05/08 06:01:08;;;;;;;18;2.8;;;;;;;16.07;56.82227;941.2291;;;;
2020/05/08 06:03:33;;;;;;;14.2;2.9;;;;;;;16.53;55.54004;941.2993;;;;
2020/05/08 06:05:58;;;;;;;6.8;2.7;;;;;;;16.85;54.96777;941.2844;;;;
2020/05/08 06:08:23;;;;;;;9.8;2.9;;;;;;;17.25;52.53516;941.2445;;;;
2020/05/08 06:10:48;;;;;;;8.1;2.4;;;;;;;17.38;51.0791;941.2728;;;;
2020/05/08 06:13:13;;;;;;;8.9;2.6;;;;;;;18.04;49.69238;941.2977;;;;
2020/05/08 06:15:38;;;;;;;9.5;2.4;;;;;;;18.97;46.57227;941.2357;;;;
2020/05/08 06:18:03;;;;;;;9;2.4;;;;;;;20.23;43.42578;941.3408;;;;
2020/05/08 06:20:29;;;;;;;9.5;2.6;;;;;;;20.88;41.8291;941.3441;;;;
2020/05/08 06:22:54;;;;;;;6.9;1.9;;;;;;;22.15;38.4668;941.3209;;;;
2020/05/08 06:25:19;;;;;;;6.2;2.2;;;;;;;23.33;36.125;941.3304;;;;
2020/05/08 06:27:44;;;;;;;8.5;2.1;;;;;;;24.36;33.68652;941.3303;;;;
2020/05/08 06:30:09;;;;;;;4.6;1.4;;;;;;;25.03;31.60059;941.317;;;;
2020/05/08 06:32:34;;;;;;;3.6;1.5;;;;;;;25.32;31.07813;941.2545;;;;
2020/05/08 06:35:00;;;;;;;2.6;1.2;;;;;;;23.81;31.80859;941.1711;;;;
2020/05/08 06:37:25;;;;;;;5;1.4;;;;;;;23.29;33.19434;941.163;;;;
2020/05/08 06:39:50;;;;;;;5.2;1.6;;;;;;;24.68;33.89941;941.1641;;;;
2020/05/08 06:42:15;;;;;;;4.3;1.3;;;;;;;25.53;33.59766;941.1135;;;;
2020/05/08 06:44:40;;;;;;;4.9;1.5;;;;;;;26.56;29.08008;941.0985;;;;
2020/05/08 06:47:05;;;;;;;3.6;1.2;;;;;;;26.73;29.74316;941.0513;;;;
2020/05/08 06:49:31;;;;;;;5.7;1.2;;;;;;;26.21;32.02734;941.0039;;;;
2020/05/08 06:51:56;;;;;;;4.1;1.3;;;;;;;25.49;34.88184;941.0069;;;;
2020/05/08 06:54:21;;;;;;;3.8;1.2;;;;;;;27.55;29.12109;940.9587;;;;
2020/05/08 06:56:46;;;;;;;2;1.1;;;;;;;26.56;31.65039;940.9342;;;;
2020/05/08 06:59:11;;;;;;;2.2;1.1;;;;;;;27.61;29.45703;940.9008;;;;
2020/05/08 07:01:36;;;;;;;3.3;1;;;;;;;28.64;25.69434;940.8985;;;;
2020/05/08 07:04:01;;;;;;;3.1;1.2;;;;;;;28.84;25.4082;940.8684;;;;
2020/05/08 07:06:27;;;;;;;5.6;1.5;;;;;;;28.82;26.28711;940.8365;;;;
2020/05/08 07:08:52;;;;;;;2.7;1;;;;;;;28.78;24.3457;940.8274;;;;
2020/05/08 07:11:17;;;;;;;2.9;1;;;;;;;29.49;24.00293;940.7148;;;;
2020/05/08 07:13:42;;;;;;;3.3;1.1;;;;;;;29.06;24.02734;940.7521;;;;
2020/05/08 07:16:07;;;;;;;5;1;;;;;;;28.23;25.12402;940.6814;;;;
2020/05/08 07:18:32;;;;;;;3.7;1.1;;;;;;;29.15;24.65137;940.6387;;;;
2020/05/08 07:20:57;;;;;;;1.6;0.8;;;;;;;29.87;22.99707;940.6099;;;;
2020/05/08 07:23:22;;;;;;;2.2;0.9;;;;;;;29.49;23.9668;940.5283;;;;
2020/05/08 07:25:47;;;;;;;2.3;0.9;;;;;;;30.61;24.56348;940.5172;;;;
2020/05/08 07:28:13;;;;;;;4.1;1;;;;;;;31.18;24.82227;940.4977;;;;
2020/05/08 07:30:38;;;;;;;3.8;1.1;;;;;;;31.85;20.53418;940.4061;;;;
2020/05/08 07:33:03;;;;;;;3.5;0.9;;;;;;;32.66;20.71484;940.4484;;;;
2020/05/08 07:35:28;;;;;;;2.4;0.9;;;;;;;32.66;20.8584;940.4437;;;;
2020/05/08 07:37:53;;;;;;;2.6;0.9;;;;;;;32.89;20.13672;940.3878;;;;
2020/05/08 07:40:18;;;;;;;1.3;0.7;;;;;;;32.94;20.42773;940.3259;;;;
2020/05/08 07:42:43;;;;;;;5;1;;;;;;;32.32;19.76367;940.3162;;;;
2020/05/08 07:45:09;;;;;;;2.6;0.8;;;;;;;32.58;20.18262;940.2482;;;;
2020/05/08 07:47:34;;;;;;;3.9;1.9;;;;;;;32.94;18.54199;940.2153;;;;
2020/05/08 07:49:59;;;;;;;2.5;1.6;;;;;;;31.6;19.97168;940.1563;;;;
2020/05/08 07:52:25;;;;;;;3.9;1.8;;;;;;;32.11;21.02539;940.1603;;;;
2020/05/08 07:54:50;;;;;;;3.3;1.3;;;;;;;32.43;19.03613;940.0964;;;;
2020/05/08 07:57:15;;;;;;;4.2;1.2;;;;;;;32.48;19.06348;940.0778;;;;
2020/05/08 07:59:42;;;;;;;2.4;1;;;;;;;32.12;19.2041;939.9813;;;;
2020/05/08 08:02:10;;;;;;;1.6;0.9;;;;;;;33.2;21.67676;940.0561;;;;
2020/05/08 08:04:37;;;;;;;2.2;0.9;;;;;;;32.31;18.44434;939.9559;;;;
2020/05/08 08:07:07;;;;;;;1.2;0.8;;;;;;;31.76;19.17578;939.9684;;;;
2020/05/08 08:09:35;;;;;;;1.3;0.7;;;;;;;31.7;18.59863;939.9165;;;;
2020/05/08 08:12:05;;;;;;;1.6;0.9;;;;;;;32.61;18.93555;939.8962;;;;
2020/05/08 08:14:30;;;;;;;2.3;0.8;;;;;;;31.96;19.28027;939.8822;;;;
2020/05/08 08:16:55;;;;;;;2.2;0.7;;;;;;;32.98;20.78906;939.8528;;;;
2020/05/08 08:19:26;;;;;;;1.8;0.8;;;;;;;33.11;19.6543;939.7562;;;;
2020/05/08 08:21:52;;;;;;;1.9;0.8;;;;;;;33.09;22.32031;939.7885;;;;
2020/05/08 08:24:17;;;;;;;3;0.7;;;;;;;32.4;19.64746;939.7922;;;;
2020/05/08 08:29:09;;;;;;;2.6;0.8;;;;;;;30.59;20.64453;939.6819;;;;
2020/05/08 08:31:31;;;;;;;2.4;1;;;;;;;30.6;22.81934;939.6077;;;;
2020/05/08 08:34:07;;;;;;;0.9;0.8;;;;;;;31.25;22.27734;939.6002;;;;
2020/05/08 08:36:30;;;;;;;1.2;0.8;;;;;;;31.39;20.40527;939.6014;;;;
2020/05/08 08:38:57;;;;;;;2.3;1;;;;;;;30.99;21.5;939.5466;;;;
2020/05/08 08:41:42;;;;;;;4;1.1;;;;;;;30.84;22.24512;939.5396;;;;
2020/05/08 08:43:59;;;;;;;1.1;0.8;;;;;;;31.07;23.84766;939.4709;;;;
2020/05/08 08:48:32;;;;;;;1.3;0.8;;;;;;;31.42;24.72754;939.4498;;;;
2020/05/08 08:51:01;;;;;;;1;0.7;;;;;;;31.47;23.80859;939.4857;;;;
2020/05/08 08:53:25;;;;;;;2.3;0.7;;;;;;;31.51;23.53516;939.4539;;;;
2020/05/08 08:55:52;;;;;;;4.4;0.9;;;;;;;31.36;25.19141;939.4228;;;;
2020/05/08 08:58:17;;;;;;;1.8;0.8;;;;;;;31.19;24.30859;939.4151;;;;
2020/05/08 09:00:42;;;;;;;5;0.9;;;;;;;30.57;23.34375;939.3775;;;;
2020/05/08 09:03:07;;;;;;;6.3;1;;;;;;;30.15;25.94727;939.3098;;;;
2020/05/08 09:05:32;;;;;;;3.4;0.8;;;;;;;30.03;25.60547;939.3122;;;;
2020/05/08 09:07:58;;;;;;;3.4;0.9;;;;;;;29.58;24.88965;939.3185;;;;
2020/05/08 09:10:29;;;;;;;2.9;0.9;;;;;;;29.35;28.30859;939.2242;;;;
2020/05/08 09:12:56;;;;;;;2.4;0.9;;;;;;;29.13;27.65137;939.2922;;;;
2020/05/08 09:15:23;;;;;;;3.4;0.9;;;;;;;29.29;29.26953;939.2424;;;;
2020/05/08 09:17:48;;;;;;;1.3;0.8;;;;;;;29.3;27.20898;939.1289;;;;
2020/05/08 09:20:13;;;;;;;1.8;0.9;;;;;;;29.29;26.16016;939.1459;;;;
2020/05/08 09:22:38;;;;;;;4.2;0.8;;;;;;;29.42;25.17871;939.0449;;;;
2020/05/08 09:25:06;;;;;;;1;0.8;;;;;;;29.29;26.55371;939.0341;;;;
2020/05/08 09:27:31;;;;;;;4.3;1;;;;;;;29.21;27.19238;939.0001;;;;
2020/05/08 09:29:56;;;;;;;2;0.9;;;;;;;28.99;28.97656;938.9766;;;;
2020/05/08 09:32:21;;;;;;;2.5;1;;;;;;;28.98;28.58301;938.9749;;;;
2020/05/08 09:34:46;;;;;;;2.4;0.9;;;;;;;28.77;27.83203;938.9302;;;;
2020/05/08 09:37:11;;;;;;;5.1;1;;;;;;;28.88;26.73145;938.8951;;;;
2020/05/08 09:39:37;;;;;;;2.7;0.7;;;;;;;28.77;29.02148;938.8842;;;;
2020/05/08 09:42:02;;;;;;;2.6;1;;;;;;;29.04;29.51563;938.8343;;;;
2020/05/08 09:44:27;;;;;;;2.7;1;;;;;;;29.25;28.64746;938.7842;;;;
2020/05/08 09:46:52;;;;;;;2.3;0.9;;;;;;;29.39;27.44043;938.8328;;;;
2020/05/08 09:49:17;;;;;;;2.4;1;;;;;;;29.61;28.9209;938.7906;;;;
2020/05/08 09:51:42;;;;;;;2.5;0.8;;;;;;;29.71;27.94922;938.7137;;;;
2020/05/08 09:54:07;;;;;;;3.9;0.9;;;;;;;29.91;27.26953;938.6933;;;;
2020/05/08 09:56:32;;;;;;;4.4;1.1;;;;;;;29.92;26.62598;938.6831;;;;
2020/05/08 09:58:58;;;;;;;2.3;0.9;;;;;;;29.64;27.50391;938.6362;;;;
2020/05/08 10:01:23;;;;;;;3.6;1;;;;;;;29.6;29.02734;938.6534;;;;
2020/05/08 10:03:48;;;;;;;1.6;1;;;;;;;29.81;27.5498;938.5936;;;;
2020/05/08 10:06:13;;;;;;;2.6;0.9;;;;;;;30.07;29.02148;938.6471;;;;
2020/05/08 10:08:38;;;;;;;4.8;0.9;;;;;;;30.17;26.84375;938.5835;;;;
2020/05/08 10:11:06;;;;;;;3.8;0.8;;;;;;;30.4;26.47559;938.577;;;;
2020/05/08 10:13:31;;;;;;;1.9;0.9;;;;;;;30.85;25.92773;938.6039;;;;
2020/05/08 10:15:56;;;;;;;3;0.9;;;;;;;30.96;25.39648;938.5876;;;;
2020/05/08 10:18:21;;;;;;;2.8;1.1;;;;;;;31.27;25.25781;938.5542;;;;
2020/05/08 10:20:46;;;;;;;5;1.6;;;;;;;31.5;26.59961;938.5299;;;;
2020/05/08 10:23:11;;;;;;;2.2;1;;;;;;;31.61;26.04297;938.485;;;;
2020/05/08 10:25:36;;;;;;;6.7;1;;;;;;;31.66;25.89063;938.4855;;;;
2020/05/08 10:28:01;;;;;;;1.7;1;;;;;;;31.95;26.6377;938.4149;;;;
2020/05/08 10:30:31;;;;;;;1.8;1;;;;;;;31.83;25.49219;938.3939;;;;
2020/05/08 10:32:52;;;;;;;3;1;;;;;;;31.88;26.2627;938.3785;;;;
2020/05/08 10:35:17;;;;;;;2.4;1.1;;;;;;;31.4;27.16797;938.3959;;;;
2020/05/08 10:37:42;;;;;;;3.9;1;;;;;;;31.48;26.78906;938.37;;;;
2020/05/08 10:40:08;;;;;;;1.8;0.9;;;;;;;31.52;27.64258;938.3737;;;;
2020/05/08 10:42:38;;;;;;;1.3;0.9;;;;;;;31.78;25.08301;938.2764;;;;
2020/05/08 10:45:11;;;;;;;1.4;1;;;;;;;32.1;25.97559;938.3253;;;;
2020/05/08 10:47:28;;;;;;;3.4;1;;;;;;;32.1;24.41699;938.301;;;;
2020/05/08 10:49:53;;;;;;;2.3;1;;;;;;;32.14;25.21094;938.1552;;;;
2020/05/08 10:52:19;;;;;;;2.6;1;;;;;;;31.77;27.39453;938.1927;;;;
2020/05/08 10:54:45;;;;;;;1.9;1.1;;;;;;;31.97;26.96191;938.1589;;;;
2020/05/08 10:57:11;;;;;;;1.8;1;;;;;;;32.2;25.5498;938.0966;;;;
2020/05/08 10:59:36;;;;;;;3;1;;;;;;;32.18;25.00879;938.0898;;;;
2020/05/08 11:02:01;;;;;;;4.3;1.1;;;;;;;32.19;25.57324;938.0783;;;;
2020/05/08 11:04:26;;;;;;;3.5;1;;;;;;;32;24.75879;938.0924;;;;
2020/05/08 11:06:53;;;;;;;2.6;1;;;;;;;31.52;26.82813;938.0905;;;;
2020/05/08 11:09:18;;;;;;;1.5;1;;;;;;;31.23;26.99023;938.1036;;;;
2020/05/08 11:11:44;;;;;;;4.4;0.9;;;;;;;30.88;26.35938;938.0829;;;;
2020/05/08 11:14:09;;;;;;;2.5;1.1;;;;;;;30.83;27.55176;937.9722;;;;
2020/05/08 11:16:34;;;;;;;2.9;1.1;;;;;;;30.37;28.38477;937.9897;;;;
2020/05/08 11:18:59;;;;;;;5.1;1.2;;;;;;;29.98;28.55078;937.9531;;;;
2020/05/08 11:21:24;;;;;;;6.4;1.1;;;;;;;29.65;29.30469;937.9363;;;;
2020/05/08 11:23:49;;;;;;;1.5;1;;;;;;;29.65;29.34082;937.8361;;;;
2020/05/08 11:26:14;;;;;;;4.3;1.1;;;;;;;29.5;30.0459;937.7802;;;;
2020/05/08 11:28:40;;;;;;;7.1;1.2;;;;;;;29.2;31.19336;937.7444;;;;
2020/05/08 11:31:05;;;;;;;4.4;1.1;;;;;;;28.86;30.2168;937.7601;;;;
2020/05/08 11:33:30;;;;;;;2.1;1;;;;;;;28.52;29.83691;937.777;;;;
2020/05/08 11:35:55;;;;;;;5;1.3;;;;;;;28.39;30.06641;937.7146;;;;
2020/05/08 11:38:20;;;;;;;5.7;1.2;;;;;;;28.34;32.98828;937.7463;;;;
2020/05/08 11:40:51;;;;;;;5.1;1.3;;;;;;;28.43;30.5332;937.7197;;;;
2020/05/08 11:43:17;;;;;;;5.3;1.2;;;;;;;28.48;32.02344;937.7274;;;;
2020/05/08 11:45:42;;;;;;;3.6;1.1;;;;;;;28.74;32.29199;937.6959;;;;
2020/05/08 11:48:09;;;;;;;4.7;1.2;;;;;;;28.81;32.53418;937.6811;;;;
2020/05/08 11:50:34;;;;;;;2.4;1.1;;;;;;;29.08;31.94727;937.6436;;;;
2020/05/08 11:54:06;;;;;;;5.1;1.2;;;;;;;29.41;31.80273;937.6641;;;;
2020/05/08 11:55:28;;;;;;;2.5;1;;;;;;;29.32;29.85547;937.6998;;;;
2020/05/08 11:57:59;;;;;;;2.7;1.1;;;;;;;29.25;30.2793;937.67;;;;
2020/05/08 12:01:53;;;;;;;3;1;;;;;;;29.08;31.41113;937.6016;;;;
2020/05/08 12:02:46;;;;;;;3.2;1;;;;;;;28.93;30.55566;937.6753;;;;
2020/05/08 12:05:16;;;;;;;2.5;1.1;;;;;;;29.04;32.00391;937.6517;;;;
2020/05/08 12:12:29;;;;;;;4.9;1.2;;;;;;;28.98;30.29688;937.5783;;;;
2020/05/08 12:22:28;;;;;;;6.7;1.4;;;;;;;28.23;31.30469;937.5617;;;;
2020/05/08 12:27:19;;;;;;;4.6;1.3;;;;;;;28.22;32.37305;937.528;;;;
2020/05/08 12:36:42;;;;;;;3.6;1.4;;;;;;;27.99;32.82031;937.5492;;;;
2020/05/08 12:47:14;;;;;;;2.7;1.3;;;;;;;27.92;34.92871;937.445;;;;
2020/05/08 13:12:05;;;;;;;4.9;1.9;;;;;;;28.45;34.67285;937.243;;;;
2020/05/08 13:16:46;;;;;;;4.8;1.7;;;;;;;28.15;33.97266;937.1244;;;;
2020/05/08 13:25:20;;;;;;;3.6;1.1;;;;;;;27.86;35.0791;937.0922;;;;
2020/05/08 13:35:20;;;;;;;3.6;1.4;;;;;;;28.03;35.65039;936.9396;;;;
2020/05/08 13:52:00;;;;;;;6.2;1.3;;;;;;;27.47;35.97363;936.7104;;;;
2020/05/08 14:01:51;;;;;;;5.6;1.4;;;;;;;27.77;35.47559;936.6577;;;;
2020/05/08 14:16:15;;;;;;;4.3;1.5;;;;;;;27.59;36.83789;936.5463;;;;
2020/05/08 14:24:00;;;;;;;2.4;1.4;;;;;;;27.6;35.4502;936.4194;;;;
2020/05/08 14:45:55;;;;;;;3;1.5;;;;;;;26.11;41.29395;936.3459;;;;
2020/05/08 15:07:49;;;;;;;2.8;1.6;;;;;;;24.96;41.74316;936.3206;;;;
2020/05/08 15:11:57;;;;;;;3.6;1.5;;;;;;;24.9;42.30371;936.2966;;;;
2020/05/08 15:18:33;;;;;;;2.5;1.7;;;;;;;24.95;42.03711;936.2347;;;;
2020/05/08 15:21:44;;;;;;;4;1.7;;;;;;;24.84;41.99121;936.2523;;;;
2020/05/08 15:28:49;;;;;;;2.3;1.5;;;;;;;25.04;40.7002;936.2905;;;;
2020/05/08 15:42:24;;;;;;;7;1.6;;;;;;;24.84;41.38867;936.2403;;;;
2020/05/08 15:51:02;;;;;;;7.2;1.9;;;;;;;24.59;42.49805;936.2687;;;;
2020/05/08 16:00:03;;;;;;;4.6;1.7;;;;;;;24.51;42.70313;936.215;;;;
2020/05/08 16:05:37;;;;;;;6.8;1.8;;;;;;;24.3;43.76563;936.1457;;;;
2020/05/08 16:12:39;;;;;;;3.6;1.7;;;;;;;24.18;43.61426;936.1815;;;;
2020/05/08 16:15:09;;;;;;;3.8;1.5;;;;;;;24.16;43.8584;936.2117;;;;
2020/05/08 16:32:04;;;;;;;3.1;1.8;;;;;;;24.36;42.38281;936.0823;;;;
2020/05/08 16:36:52;;;;;;;9.9;2;;;;;;;24.55;43.49609;936.1088;;;;
2020/05/08 16:39:16;;;;;;;6.7;2;;;;;;;24.59;43.1582;936.116;;;;
2020/05/08 16:56:28;;;;;;;6;1.8;;;;;;;24.3;43.02344;936.0359;;;;
2020/05/08 17:11:06;;;;;;;3.1;1.7;;;;;;;23.78;43.26855;936.2023;;;;
2020/05/08 17:18:12;;;;;;;3.4;1.8;;;;;;;23.82;42.89551;936.2527;;;;
2020/05/08 17:33:00;;;;;;;3.4;2;;;;;;;23.58;43.57715;936.4006;;;;
2020/05/08 17:40:06;;;;;;;4.5;2.8;;;;;;;23.49;44.26367;936.4755;;;;
2020/05/08 17:54:41;;;;;;;4;2.2;;;;;;;23.27;44.82813;936.4716;;;;
2020/05/08 18:04:13;;;;;;;6.2;2.7;;;;;;;22.93;45.45215;936.6356;;;;
2020/05/08 18:11:35;;;;;;;6.5;2.8;;;;;;;22.68;47.96289;936.6532;;;;
2020/05/08 18:14:15;;;;;;;4.4;2.1;;;;;;;22.59;47.17773;936.7068;;;;
2020/05/08 18:41:15;;;;;;;12.6;6.5;;;;;;;21.04;55.08398;936.8058;;;;
2020/05/08 18:44:22;;;;;;;10;4.1;;;;;;;21.03;54.71875;936.7908;;;;
2020/05/08 19:00:13;;;;;;;10.9;4.1;;;;;;;20.67;58.4248;936.943;;;;
2020/05/08 19:36:53;;;;;;;6.5;3.1;;;;;;;19.74;60.43652;937.1408;;;;
2020/05/08 19:51:22;;;;;;;8;3.5;;;;;;;19.72;59.74707;937.2042;;;;
2020/05/08 19:56:17;;;;;;;7.8;3.5;;;;;;;19.74;59.79492;937.1731;;;;
2020/05/08 20:02:02;;;;;;;7;3.7;;;;;;;19.72;58.61621;937.1299;;;;
2020/05/08 20:20:21;;;;;;;6.5;3.6;;;;;;;19.3;61.16797;936.9539;;;;
2020/05/08 20:49:51;;;;;;;13.4;4.3;;;;;;;18.55;63.69336;936.9089;;;;
2020/05/08 20:59:03;;;;;;;8.3;4;;;;;;;18.27;64.66309;936.907;;;;
2020/05/08 21:02:25;;;;;;;8.4;3.8;;;;;;;18.19;64.97852;936.9333;;;;
2020/05/08 21:17:02;;;;;;;10;4;;;;;;;18;65.05273;936.867;;;;
2020/05/08 21:35:46;;;;;;;9;3.8;;;;;;;17.73;65.65234;936.8393;;;;
2020/05/08 21:50:11;;;;;;;10.3;3.7;;;;;;;17.53;65.90137;936.8217;;;;
2020/05/08 22:08:21;;;;;;;4.7;3.3;;;;;;;17.1;67.5166;936.9952;;;;
2020/05/08 23:05:19;;;;;;;4.8;3.1;;;;;;;16.2;69.38086;936.4701;;;;
2020/05/08 23:17:42;;;;;;;6.2;3.6;;;;;;;16.08;70.26367;936.6156;;;;
2020/05/08 23:24:35;;;;;;;5.2;3.5;;;;;;;16.2;69.8418;936.6277;;;;
2020/05/08 23:34:19;;;;;;;5.3;3.3;;;;;;;16.07;70.16895;936.5845;;;;
2020/05/08 23:46:16;;;;;;;2.9;2.6;;;;;;;15.85;70.88477;936.5278;;;;
